Aviation Digital Data Service (ADDS)

Output produced by METARs form (0408 UTC 24 January 2019)
found at http://www.aviationweather.gov/metar/data/
 
Forecast for: ROIG (ISHIGAKIJIMA ISL, JP)
Text: TAF ROIG 232307Z 2400/2506 04010KT 9999 FEW035 SCT045
Forecast period: 0000 UTC 24 January 2019 to 0600 UTC 25 January 2019
Forecast type: FROM: standard forecast or significant change
Winds: from the NE (40 degrees) at 12 MPH (10 knots; 5.1 m/s)
Visibility: 6 or more miles 10+ km)
Ceiling: at least 12,000 feet AGL
Clouds: few clouds at 3500 feet AGL
scattered clouds at 4500 feet AGL
Weather: no significant weather forecast for this period